sensor_id;sensor_type;location;lat;lon;timestamp;P1;durP1;ratioP1;P2;durP2;ratioP2
32824;SDS011;51060;42.640;24.356;2022-10-16T00:00:56;13.83;;;11.23;;
32824;SDS011;51060;42.640;24.356;2022-10-16T00:03:22;14.30;;;10.60;;
32824;SDS011;51060;42.640;24.356;2022-10-16T00:05:48;12.23;;;10.20;;
32824;SDS011;51060;42.640;24.356;2022-10-16T00:08:13;12.63;;;10.87;;
32824;SDS011;51060;42.640;24.356;2022-10-16T00:10:39;11.23;;;9.70;;
32824;SDS011;51060;42.640;24.356;2022-10-16T00:13:06;11.87;;;9.30;;
32824;SDS011;51060;42.640;24.356;2022-10-16T00:15:37;18.83;;;16.73;;
32824;SDS011;51060;42.640;24.356;2022-10-16T00:18:04;10.07;;;9.03;;
32824;SDS011;51060;42.640;24.356;2022-10-16T00:20:30;24.93;;;19.40;;
32824;SDS011;51060;42.640;24.356;2022-10-16T00:22:58;22.73;;;17.07;;
32824;SDS011;51060;42.640;24.356;2022-10-16T00:25:24;21.17;;;15.30;;
32824;SDS011;51060;42.640;24.356;2022-10-16T00:27:49;30.10;;;22.77;;
32824;SDS011;51060;42.640;24.356;2022-10-16T00:30:15;19.00;;;15.07;;
32824;SDS011;51060;42.640;24.356;2022-10-16T00:32:41;16.70;;;12.43;;
32824;SDS011;51060;42.640;24.356;2022-10-16T00:35:06;20.57;;;15.43;;
32824;SDS011;51060;42.640;24.356;2022-10-16T00:37:32;19.57;;;14.27;;
32824;SDS011;51060;42.640;24.356;2022-10-16T00:39:57;23.07;;;15.83;;
32824;SDS011;51060;42.640;24.356;2022-10-16T00:42:23;25.87;;;18.30;;
32824;SDS011;51060;42.640;24.356;2022-10-16T00:44:53;33.53;;;21.73;;
32824;SDS011;51060;42.640;24.356;2022-10-16T00:47:32;26.80;;;18.67;;
32824;SDS011;51060;42.640;24.356;2022-10-16T00:50:08;27.93;;;19.07;;
32824;SDS011;51060;42.640;24.356;2022-10-16T00:52:57;28.60;;;19.90;;
32824;SDS011;51060;42.640;24.356;2022-10-16T00:55:24;28.13;;;17.50;;
32824;SDS011;51060;42.640;24.356;2022-10-16T00:57:50;25.53;;;17.77;;
32824;SDS011;51060;42.640;24.356;2022-10-16T01:00:18;22.13;;;15.30;;
32824;SDS011;51060;42.640;24.356;2022-10-16T01:02:51;18.83;;;13.23;;
32824;SDS011;51060;42.640;24.356;2022-10-16T01:05:17;21.30;;;14.10;;
32824;SDS011;51060;42.640;24.356;2022-10-16T01:10:33;14.37;;;10.57;;
32824;SDS011;51060;42.640;24.356;2022-10-16T01:20:58;12.77;;;10.20;;
32824;SDS011;51060;42.640;24.356;2022-10-16T01:23:35;15.10;;;10.67;;
32824;SDS011;51060;42.640;24.356;2022-10-16T01:29:25;14.97;;;9.17;;
32824;SDS011;51060;42.640;24.356;2022-10-16T01:31:56;11.17;;;8.13;;
32824;SDS011;51060;42.640;24.356;2022-10-16T01:34:35;9.73;;;8.73;;
32824;SDS011;51060;42.640;24.356;2022-10-16T01:37:12;10.80;;;8.30;;
32824;SDS011;51060;42.640;24.356;2022-10-16T01:39:39;11.80;;;8.80;;
32824;SDS011;51060;42.640;24.356;2022-10-16T01:42:09;28.30;;;16.53;;
32824;SDS011;51060;42.640;24.356;2022-10-16T01:44:38;148.27;;;68.50;;
32824;SDS011;51060;42.640;24.356;2022-10-16T01:47:05;174.93;;;82.00;;
32824;SDS011;51060;42.640;24.356;2022-10-16T01:49:34;266.67;;;111.30;;
32824;SDS011;51060;42.640;24.356;2022-10-16T01:52:02;72.40;;;38.60;;
32824;SDS011;51060;42.640;24.356;2022-10-16T01:54:31;52.27;;;28.53;;
32824;SDS011;51060;42.640;24.356;2022-10-16T01:56:58;39.40;;;23.83;;
32824;SDS011;51060;42.640;24.356;2022-10-16T01:59:25;30.87;;;18.03;;
32824;SDS011;51060;42.640;24.356;2022-10-16T02:01:55;29.20;;;17.87;;
32824;SDS011;51060;42.640;24.356;2022-10-16T02:04:29;25.23;;;15.33;;
32824;SDS011;51060;42.640;24.356;2022-10-16T02:06:57;16.90;;;11.97;;
32824;SDS011;51060;42.640;24.356;2022-10-16T02:09:23;12.50;;;8.17;;
32824;SDS011;51060;42.640;24.356;2022-10-16T02:11:48;9.17;;;6.50;;
32824;SDS011;51060;42.640;24.356;2022-10-16T02:14:16;5.93;;;5.27;;
32824;SDS011;51060;42.640;24.356;2022-10-16T02:16:43;6.50;;;5.30;;
32824;SDS011;51060;42.640;24.356;2022-10-16T02:19:11;6.07;;;5.43;;
32824;SDS011;51060;42.640;24.356;2022-10-16T02:29:40;11.67;;;8.77;;
32824;SDS011;51060;42.640;24.356;2022-10-16T02:32:10;21.73;;;17.30;;
32824;SDS011;51060;42.640;24.356;2022-10-16T02:34:37;27.67;;;21.80;;
32824;SDS011;51060;42.640;24.356;2022-10-16T02:37:04;13.57;;;10.73;;
32824;SDS011;51060;42.640;24.356;2022-10-16T02:39:31;14.70;;;10.70;;
32824;SDS011;51060;42.640;24.356;2022-10-16T02:41:58;12.00;;;9.63;;
32824;SDS011;51060;42.640;24.356;2022-10-16T02:44:23;11.20;;;9.60;;
32824;SDS011;51060;42.640;24.356;2022-10-16T02:46:49;12.60;;;10.30;;
32824;SDS011;51060;42.640;24.356;2022-10-16T02:49:15;16.27;;;11.63;;
32824;SDS011;51060;42.640;24.356;2022-10-16T02:51:40;15.47;;;11.40;;
32824;SDS011;51060;42.640;24.356;2022-10-16T02:54:06;14.57;;;11.07;;
32824;SDS011;51060;42.640;24.356;2022-10-16T02:56:31;13.83;;;11.13;;
32824;SDS011;51060;42.640;24.356;2022-10-16T02:58:57;11.67;;;9.20;;
32824;SDS011;51060;42.640;24.356;2022-10-16T03:01:23;15.73;;;10.40;;
32824;SDS011;51060;42.640;24.356;2022-10-16T03:03:49;14.27;;;10.70;;
32824;SDS011;51060;42.640;24.356;2022-10-16T03:06:14;14.13;;;10.27;;
32824;SDS011;51060;42.640;24.356;2022-10-16T03:08:40;13.63;;;10.27;;
32824;SDS011;51060;42.640;24.356;2022-10-16T03:11:05;13.20;;;10.70;;
32824;SDS011;51060;42.640;24.356;2022-10-16T03:13:31;18.90;;;11.33;;
32824;SDS011;51060;42.640;24.356;2022-10-16T03:15:57;17.37;;;12.00;;
32824;SDS011;51060;42.640;24.356;2022-10-16T03:18:22;16.57;;;11.87;;
32824;SDS011;51060;42.640;24.356;2022-10-16T03:20:48;15.90;;;11.53;;
32824;SDS011;51060;42.640;24.356;2022-10-16T03:23:13;16.40;;;11.57;;
32824;SDS011;51060;42.640;24.356;2022-10-16T03:25:39;15.60;;;10.93;;
32824;SDS011;51060;42.640;24.356;2022-10-16T03:28:04;19.87;;;12.30;;
32824;SDS011;51060;42.640;24.356;2022-10-16T03:30:30;12.43;;;8.30;;
32824;SDS011;51060;42.640;24.356;2022-10-16T03:32:56;16.57;;;10.43;;
32824;SDS011;51060;42.640;24.356;2022-10-16T03:35:22;37.20;;;17.13;;
32824;SDS011;51060;42.640;24.356;2022-10-16T03:37:48;34.47;;;20.60;;
32824;SDS011;51060;42.640;24.356;2022-10-16T03:40:14;35.30;;;19.83;;
32824;SDS011;51060;42.640;24.356;2022-10-16T03:42:40;31.07;;;20.23;;
32824;SDS011;51060;42.640;24.356;2022-10-16T03:45:07;42.47;;;22.60;;
32824;SDS011;51060;42.640;24.356;2022-10-16T03:47:33;35.30;;;19.40;;
32824;SDS011;51060;42.640;24.356;2022-10-16T03:49:59;38.80;;;18.87;;
32824;SDS011;51060;42.640;24.356;2022-10-16T03:52:25;45.43;;;22.80;;
32824;SDS011;51060;42.640;24.356;2022-10-16T03:54:50;37.23;;;19.90;;
32824;SDS011;51060;42.640;24.356;2022-10-16T03:57:16;35.17;;;19.80;;
32824;SDS011;51060;42.640;24.356;2022-10-16T03:59:42;27.77;;;16.17;;
32824;SDS011;51060;42.640;24.356;2022-10-16T04:02:08;24.07;;;16.20;;
32824;SDS011;51060;42.640;24.356;2022-10-16T04:04:33;29.20;;;17.60;;
32824;SDS011;51060;42.640;24.356;2022-10-16T04:06:59;41.40;;;21.97;;
32824;SDS011;51060;42.640;24.356;2022-10-16T04:09:24;35.10;;;19.20;;
32824;SDS011;51060;42.640;24.356;2022-10-16T04:11:53;41.30;;;21.73;;
32824;SDS011;51060;42.640;24.356;2022-10-16T04:14:18;39.47;;;25.47;;
32824;SDS011;51060;42.640;24.356;2022-10-16T04:16:44;47.07;;;19.33;;
32824;SDS011;51060;42.640;24.356;2022-10-16T04:19:10;36.57;;;18.50;;
32824;SDS011;51060;42.640;24.356;2022-10-16T04:21:36;56.53;;;30.00;;
32824;SDS011;51060;42.640;24.356;2022-10-16T04:24:02;52.40;;;29.20;;
32824;SDS011;51060;42.640;24.356;2022-10-16T04:26:28;48.23;;;23.10;;
32824;SDS011;51060;42.640;24.356;2022-10-16T04:28:53;34.50;;;18.53;;
32824;SDS011;51060;42.640;24.356;2022-10-16T04:31:19;34.53;;;18.23;;
32824;SDS011;51060;42.640;24.356;2022-10-16T04:33:48;30.03;;;15.87;;
32824;SDS011;51060;42.640;24.356;2022-10-16T04:36:13;23.83;;;14.57;;
32824;SDS011;51060;42.640;24.356;2022-10-16T04:38:39;25.00;;;17.30;;
32824;SDS011;51060;42.640;24.356;2022-10-16T04:41:05;160.00;;;74.53;;
32824;SDS011;51060;42.640;24.356;2022-10-16T04:43:32;80.40;;;38.93;;
32824;SDS011;51060;42.640;24.356;2022-10-16T04:45:58;43.60;;;29.30;;
32824;SDS011;51060;42.640;24.356;2022-10-16T04:48:23;72.13;;;28.33;;
32824;SDS011;51060;42.640;24.356;2022-10-16T04:50:49;52.13;;;27.27;;
32824;SDS011;51060;42.640;24.356;2022-10-16T04:53:15;73.03;;;32.13;;
32824;SDS011;51060;42.640;24.356;2022-10-16T04:55:40;64.53;;;30.50;;
32824;SDS011;51060;42.640;24.356;2022-10-16T04:58:06;60.33;;;28.43;;
32824;SDS011;51060;42.640;24.356;2022-10-16T05:00:32;58.97;;;31.23;;
32824;SDS011;51060;42.640;24.356;2022-10-16T05:02:58;62.67;;;28.53;;
32824;SDS011;51060;42.640;24.356;2022-10-16T05:05:26;109.20;;;29.77;;
32824;SDS011;51060;42.640;24.356;2022-10-16T05:07:54;58.30;;;25.67;;
32824;SDS011;51060;42.640;24.356;2022-10-16T05:10:20;93.60;;;30.13;;
32824;SDS011;51060;42.640;24.356;2022-10-16T05:12:46;78.87;;;24.20;;
32824;SDS011;51060;42.640;24.356;2022-10-16T05:15:11;69.57;;;25.10;;
32824;SDS011;51060;42.640;24.356;2022-10-16T05:17:37;47.77;;;23.60;;
32824;SDS011;51060;42.640;24.356;2022-10-16T05:20:03;47.40;;;24.73;;
32824;SDS011;51060;42.640;24.356;2022-10-16T05:22:29;55.83;;;24.97;;
32824;SDS011;51060;42.640;24.356;2022-10-16T05:24:55;47.07;;;24.27;;
32824;SDS011;51060;42.640;24.356;2022-10-16T05:27:20;46.90;;;27.03;;
32824;SDS011;51060;42.640;24.356;2022-10-16T05:29:46;57.70;;;27.00;;
32824;SDS011;51060;42.640;24.356;2022-10-16T05:32:13;60.63;;;30.03;;
32824;SDS011;51060;42.640;24.356;2022-10-16T05:34:42;51.87;;;31.83;;
32824;SDS011;51060;42.640;24.356;2022-10-16T05:37:08;87.03;;;34.27;;
32824;SDS011;51060;42.640;24.356;2022-10-16T05:39:34;46.07;;;29.40;;
32824;SDS011;51060;42.640;24.356;2022-10-16T05:42:02;63.53;;;37.00;;
32824;SDS011;51060;42.640;24.356;2022-10-16T05:44:27;47.43;;;34.07;;
32824;SDS011;51060;42.640;24.356;2022-10-16T05:46:53;65.50;;;43.50;;
32824;SDS011;51060;42.640;24.356;2022-10-16T05:49:18;71.10;;;41.03;;
32824;SDS011;51060;42.640;24.356;2022-10-16T05:51:44;82.23;;;40.60;;
32824;SDS011;51060;42.640;24.356;2022-10-16T05:54:10;73.03;;;39.57;;
32824;SDS011;51060;42.640;24.356;2022-10-16T05:56:35;54.67;;;31.60;;
32824;SDS011;51060;42.640;24.356;2022-10-16T05:59:02;48.27;;;30.77;;
32824;SDS011;51060;42.640;24.356;2022-10-16T06:01:30;56.10;;;34.30;;
32824;SDS011;51060;42.640;24.356;2022-10-16T06:03:56;70.07;;;38.07;;
32824;SDS011;51060;42.640;24.356;2022-10-16T06:06:25;71.90;;;40.93;;
32824;SDS011;51060;42.640;24.356;2022-10-16T06:08:51;64.90;;;38.33;;
32824;SDS011;51060;42.640;24.356;2022-10-16T06:11:20;49.17;;;32.90;;
32824;SDS011;51060;42.640;24.356;2022-10-16T06:13:50;52.73;;;33.93;;
32824;SDS011;51060;42.640;24.356;2022-10-16T06:16:19;62.07;;;37.50;;
32824;SDS011;51060;42.640;24.356;2022-10-16T06:18:45;51.20;;;32.30;;
32824;SDS011;51060;42.640;24.356;2022-10-16T06:21:16;46.23;;;30.10;;
32824;SDS011;51060;42.640;24.356;2022-10-16T06:23:43;43.53;;;27.83;;
32824;SDS011;51060;42.640;24.356;2022-10-16T06:26:10;37.00;;;27.53;;
32824;SDS011;51060;42.640;24.356;2022-10-16T06:28:36;37.50;;;26.53;;
32824;SDS011;51060;42.640;24.356;2022-10-16T06:31:02;37.47;;;27.53;;
32824;SDS011;51060;42.640;24.356;2022-10-16T06:33:29;45.37;;;30.70;;
32824;SDS011;51060;42.640;24.356;2022-10-16T06:35:59;41.00;;;30.53;;
32824;SDS011;51060;42.640;24.356;2022-10-16T06:38:29;45.30;;;30.73;;
32824;SDS011;51060;42.640;24.356;2022-10-16T06:40:55;41.50;;;29.87;;
32824;SDS011;51060;42.640;24.356;2022-10-16T06:43:21;36.63;;;28.07;;
32824;SDS011;51060;42.640;24.356;2022-10-16T06:45:53;36.73;;;29.97;;
32824;SDS011;51060;42.640;24.356;2022-10-16T06:48:19;50.03;;;37.90;;
32824;SDS011;51060;42.640;24.356;2022-10-16T06:50:58;36.70;;;29.50;;
32824;SDS011;51060;42.640;24.356;2022-10-16T06:53:25;40.00;;;30.30;;
32824;SDS011;51060;42.640;24.356;2022-10-16T06:55:52;41.83;;;29.87;;
32824;SDS011;51060;42.640;24.356;2022-10-16T06:58:18;36.03;;;26.73;;
32824;SDS011;51060;42.640;24.356;2022-10-16T07:00:47;38.43;;;27.57;;
32824;SDS011;51060;42.640;24.356;2022-10-16T07:03:12;37.77;;;28.37;;
32824;SDS011;51060;42.640;24.356;2022-10-16T07:05:38;34.17;;;26.80;;
32824;SDS011;51060;42.640;24.356;2022-10-16T07:08:04;34.27;;;25.50;;
32824;SDS011;51060;42.640;24.356;2022-10-16T07:10:31;36.47;;;27.37;;
32824;SDS011;51060;42.640;24.356;2022-10-16T07:12:57;37.13;;;26.97;;
32824;SDS011;51060;42.640;24.356;2022-10-16T07:15:22;28.63;;;22.40;;
32824;SDS011;51060;42.640;24.356;2022-10-16T07:17:49;30.37;;;23.93;;
32824;SDS011;51060;42.640;24.356;2022-10-16T07:20:15;23.73;;;19.80;;
32824;SDS011;51060;42.640;24.356;2022-10-16T07:22:40;23.77;;;17.97;;
32824;SDS011;51060;42.640;24.356;2022-10-16T07:25:06;21.10;;;17.60;;
32824;SDS011;51060;42.640;24.356;2022-10-16T07:27:32;22.10;;;17.17;;
32824;SDS011;51060;42.640;24.356;2022-10-16T07:29:57;19.67;;;15.67;;
32824;SDS011;51060;42.640;24.356;2022-10-16T07:32:23;28.07;;;20.10;;
32824;SDS011;51060;42.640;24.356;2022-10-16T07:34:51;32.90;;;24.57;;
32824;SDS011;51060;42.640;24.356;2022-10-16T07:37:17;20.17;;;17.07;;
32824;SDS011;51060;42.640;24.356;2022-10-16T07:39:42;22.67;;;18.10;;
32824;SDS011;51060;42.640;24.356;2022-10-16T07:42:08;13.60;;;10.57;;
32824;SDS011;51060;42.640;24.356;2022-10-16T07:44:33;11.50;;;9.37;;
32824;SDS011;51060;42.640;24.356;2022-10-16T07:46:59;9.50;;;7.77;;
32824;SDS011;51060;42.640;24.356;2022-10-16T07:49:25;8.73;;;7.30;;
32824;SDS011;51060;42.640;24.356;2022-10-16T07:51:53;9.67;;;7.73;;
32824;SDS011;51060;42.640;24.356;2022-10-16T07:54:18;12.93;;;8.73;;
32824;SDS011;51060;42.640;24.356;2022-10-16T07:56:44;10.17;;;7.17;;
32824;SDS011;51060;42.640;24.356;2022-10-16T07:59:10;8.37;;;7.57;;
32824;SDS011;51060;42.640;24.356;2022-10-16T08:01:36;9.70;;;7.00;;
32824;SDS011;51060;42.640;24.356;2022-10-16T08:04:01;13.73;;;10.43;;
32824;SDS011;51060;42.640;24.356;2022-10-16T08:06:27;10.10;;;7.07;;
32824;SDS011;51060;42.640;24.356;2022-10-16T08:08:52;6.60;;;5.90;;
32824;SDS011;51060;42.640;24.356;2022-10-16T08:11:18;7.00;;;5.70;;
32824;SDS011;51060;42.640;24.356;2022-10-16T08:13:44;7.73;;;6.47;;
32824;SDS011;51060;42.640;24.356;2022-10-16T08:16:10;6.90;;;5.97;;
32824;SDS011;51060;42.640;24.356;2022-10-16T08:18:37;10.10;;;6.70;;
32824;SDS011;51060;42.640;24.356;2022-10-16T08:21:04;8.00;;;5.50;;
32824;SDS011;51060;42.640;24.356;2022-10-16T08:23:30;8.47;;;6.60;;
32824;SDS011;51060;42.640;24.356;2022-10-16T08:26:00;7.85;;;6.13;;
32824;SDS011;51060;42.640;24.356;2022-10-16T08:28:28;10.43;;;7.50;;
32824;SDS011;51060;42.640;24.356;2022-10-16T08:30:53;6.93;;;5.37;;
32824;SDS011;51060;42.640;24.356;2022-10-16T08:33:21;6.68;;;5.00;;
32824;SDS011;51060;42.640;24.356;2022-10-16T08:35:52;5.87;;;5.27;;
32824;SDS011;51060;42.640;24.356;2022-10-16T08:38:18;6.27;;;5.67;;
32824;SDS011;51060;42.640;24.356;2022-10-16T08:40:44;12.82;;;9.20;;
32824;SDS011;51060;42.640;24.356;2022-10-16T08:48:27;7.50;;;5.22;;
32824;SDS011;51060;42.640;24.356;2022-10-16T08:50:55;7.53;;;6.22;;
32824;SDS011;51060;42.640;24.356;2022-10-16T08:53:26;9.48;;;6.90;;
32824;SDS011;51060;42.640;24.356;2022-10-16T08:55:55;8.38;;;5.93;;
32824;SDS011;51060;42.640;24.356;2022-10-16T08:58:29;8.55;;;5.35;;
32824;SDS011;51060;42.640;24.356;2022-10-16T09:00:56;9.13;;;7.40;;
32824;SDS011;51060;42.640;24.356;2022-10-16T09:19:53;6.57;;;4.50;;
32824;SDS011;51060;42.640;24.356;2022-10-16T09:22:26;6.68;;;4.75;;
32824;SDS011;51060;42.640;24.356;2022-10-16T09:24:54;8.65;;;5.70;;
32824;SDS011;51060;42.640;24.356;2022-10-16T09:27:22;8.43;;;6.30;;
32824;SDS011;51060;42.640;24.356;2022-10-16T09:29:47;7.30;;;5.35;;
32824;SDS011;51060;42.640;24.356;2022-10-16T09:32:17;6.63;;;5.60;;
32824;SDS011;51060;42.640;24.356;2022-10-16T09:34:48;8.63;;;5.30;;
32824;SDS011;51060;42.640;24.356;2022-10-16T09:37:17;7.97;;;5.60;;
32824;SDS011;51060;42.640;24.356;2022-10-16T09:39:50;6.53;;;4.95;;
32824;SDS011;51060;42.640;24.356;2022-10-16T09:42:17;5.20;;;4.07;;
32824;SDS011;51060;42.640;24.356;2022-10-16T09:44:47;2.60;;;2.40;;
32824;SDS011;51060;42.640;24.356;2022-10-16T09:47:15;4.28;;;3.42;;
32824;SDS011;51060;42.640;24.356;2022-10-16T09:49:52;5.07;;;3.53;;
32824;SDS011;51060;42.640;24.356;2022-10-16T09:52:20;5.97;;;3.40;;
32824;SDS011;51060;42.640;24.356;2022-10-16T09:54:53;5.57;;;3.65;;
32824;SDS011;51060;42.640;24.356;2022-10-16T09:57:23;6.53;;;4.22;;
32824;SDS011;51060;42.640;24.356;2022-10-16T09:59:56;6.90;;;4.53;;
32824;SDS011;51060;42.640;24.356;2022-10-16T10:02:35;6.05;;;4.40;;
32824;SDS011;51060;42.640;24.356;2022-10-16T10:05:04;4.93;;;3.50;;
32824;SDS011;51060;42.640;24.356;2022-10-16T10:07:31;4.60;;;2.60;;
32824;SDS011;51060;42.640;24.356;2022-10-16T10:10:01;3.50;;;3.20;;
32824;SDS011;51060;42.640;24.356;2022-10-16T10:12:29;2.95;;;2.65;;
32824;SDS011;51060;42.640;24.356;2022-10-16T10:15:06;3.97;;;2.97;;
32824;SDS011;51060;42.640;24.356;2022-10-16T10:17:44;4.97;;;2.80;;
32824;SDS011;51060;42.640;24.356;2022-10-16T10:20:15;3.95;;;2.70;;
32824;SDS011;51060;42.640;24.356;2022-10-16T10:22:48;3.50;;;2.42;;
32824;SDS011;51060;42.640;24.356;2022-10-16T10:55:40;4.20;;;2.80;;
32824;SDS011;51060;42.640;24.356;2022-10-16T10:58:24;5.30;;;3.10;;
32824;SDS011;51060;42.640;24.356;2022-10-16T11:06:28;4.93;;;3.13;;
32824;SDS011;51060;42.640;24.356;2022-10-16T11:11:52;3.50;;;3.05;;
32824;SDS011;51060;42.640;24.356;2022-10-16T11:14:23;2.85;;;2.63;;
32824;SDS011;51060;42.640;24.356;2022-10-16T11:17:02;5.78;;;3.75;;
32824;SDS011;51060;42.640;24.356;2022-10-16T11:24:53;6.30;;;4.70;;
32824;SDS011;51060;42.640;24.356;2022-10-16T11:30:39;3.95;;;2.50;;
32824;SDS011;51060;42.640;24.356;2022-10-16T11:36:04;3.00;;;2.10;;
32824;SDS011;51060;42.640;24.356;2022-10-16T11:41:28;4.13;;;2.75;;
32824;SDS011;51060;42.640;24.356;2022-10-16T11:46:32;2.40;;;2.13;;
32824;SDS011;51060;42.640;24.356;2022-10-16T11:49:09;2.53;;;2.00;;
32824;SDS011;51060;42.640;24.356;2022-10-16T11:51:43;2.88;;;2.65;;
32824;SDS011;51060;42.640;24.356;2022-10-16T11:54:20;4.20;;;3.08;;
32824;SDS011;51060;42.640;24.356;2022-10-16T11:57:18;3.78;;;3.10;;
32824;SDS011;51060;42.640;24.356;2022-10-16T11:59:52;2.85;;;2.55;;
32824;SDS011;51060;42.640;24.356;2022-10-16T12:05:22;3.00;;;2.53;;
32824;SDS011;51060;42.640;24.356;2022-10-16T12:08:12;3.47;;;3.00;;
32824;SDS011;51060;42.640;24.356;2022-10-16T12:10:37;3.38;;;2.03;;
32824;SDS011;51060;42.640;24.356;2022-10-16T12:13:05;2.08;;;1.50;;
32824;SDS011;51060;42.640;24.356;2022-10-16T12:15:50;4.20;;;2.08;;
32824;SDS011;51060;42.640;24.356;2022-10-16T12:18:22;2.80;;;1.63;;
32824;SDS011;51060;42.640;24.356;2022-10-16T12:20:57;3.70;;;1.90;;
32824;SDS011;51060;42.640;24.356;2022-10-16T12:23:33;2.75;;;1.90;;
32824;SDS011;51060;42.640;24.356;2022-10-16T12:26:02;5.50;;;3.67;;
32824;SDS011;51060;42.640;24.356;2022-10-16T12:28:29;3.28;;;2.13;;
32824;SDS011;51060;42.640;24.356;2022-10-16T12:31:03;2.00;;;1.85;;
32824;SDS011;51060;42.640;24.356;2022-10-16T12:33:31;3.15;;;1.90;;
32824;SDS011;51060;42.640;24.356;2022-10-16T12:35:59;2.92;;;2.05;;
32824;SDS011;51060;42.640;24.356;2022-10-16T12:43:47;2.80;;;2.38;;
32824;SDS011;51060;42.640;24.356;2022-10-16T12:48:39;3.08;;;2.65;;
32824;SDS011;51060;42.640;24.356;2022-10-16T12:53:57;3.30;;;2.28;;
32824;SDS011;51060;42.640;24.356;2022-10-16T12:56:40;2.53;;;2.03;;
32824;SDS011;51060;42.640;24.356;2022-10-16T12:59:21;2.80;;;1.90;;
32824;SDS011;51060;42.640;24.356;2022-10-16T13:02:06;3.20;;;2.00;;
32824;SDS011;51060;42.640;24.356;2022-10-16T13:29:41;2.13;;;1.92;;
32824;SDS011;51060;42.640;24.356;2022-10-16T13:32:07;3.40;;;2.60;;
32824;SDS011;51060;42.640;24.356;2022-10-16T13:34:43;4.60;;;3.60;;
32824;SDS011;51060;42.640;24.356;2022-10-16T13:37:18;7.57;;;6.70;;
32824;SDS011;51060;42.640;24.356;2022-10-16T13:39:44;4.50;;;3.60;;
32824;SDS011;51060;42.640;24.356;2022-10-16T13:44:55;3.80;;;2.50;;
32824;SDS011;51060;42.640;24.356;2022-10-16T13:47:22;5.63;;;2.50;;
32824;SDS011;51060;42.640;24.356;2022-10-16T13:50:01;3.67;;;2.63;;
32824;SDS011;51060;42.640;24.356;2022-10-16T13:52:44;3.88;;;2.67;;
32824;SDS011;51060;42.640;24.356;2022-10-16T13:55:14;4.97;;;2.55;;
32824;SDS011;51060;42.640;24.356;2022-10-16T13:57:41;3.53;;;3.03;;
32824;SDS011;51060;42.640;24.356;2022-10-16T14:00:20;6.30;;;4.78;;
32824;SDS011;51060;42.640;24.356;2022-10-16T14:02:51;4.50;;;3.33;;
32824;SDS011;51060;42.640;24.356;2022-10-16T14:05:19;6.40;;;4.95;;
32824;SDS011;51060;42.640;24.356;2022-10-16T14:07:47;4.05;;;3.00;;
32824;SDS011;51060;42.640;24.356;2022-10-16T14:10:22;4.15;;;2.90;;
32824;SDS011;51060;42.640;24.356;2022-10-16T14:12:59;5.13;;;3.63;;
32824;SDS011;51060;42.640;24.356;2022-10-16T14:15:26;4.25;;;2.95;;
32824;SDS011;51060;42.640;24.356;2022-10-16T14:17:52;8.10;;;4.07;;
32824;SDS011;51060;42.640;24.356;2022-10-16T14:20:18;4.63;;;3.78;;
32824;SDS011;51060;42.640;24.356;2022-10-16T14:22:44;5.57;;;4.53;;
32824;SDS011;51060;42.640;24.356;2022-10-16T14:25:21;4.63;;;3.28;;
32824;SDS011;51060;42.640;24.356;2022-10-16T14:30:54;11.65;;;5.85;;
32824;SDS011;51060;42.640;24.356;2022-10-16T14:35:58;5.50;;;3.55;;
32824;SDS011;51060;42.640;24.356;2022-10-16T14:38:31;6.15;;;4.43;;
32824;SDS011;51060;42.640;24.356;2022-10-16T14:40:58;5.88;;;4.93;;
32824;SDS011;51060;42.640;24.356;2022-10-16T14:43:40;7.15;;;5.40;;
32824;SDS011;51060;42.640;24.356;2022-10-16T14:46:09;8.80;;;6.55;;
32824;SDS011;51060;42.640;24.356;2022-10-16T14:48:43;14.60;;;12.05;;
32824;SDS011;51060;42.640;24.356;2022-10-16T14:51:14;20.77;;;16.95;;
32824;SDS011;51060;42.640;24.356;2022-10-16T14:53:42;18.60;;;12.13;;
32824;SDS011;51060;42.640;24.356;2022-10-16T14:56:08;17.65;;;11.18;;
32824;SDS011;51060;42.640;24.356;2022-10-16T14:58:34;21.13;;;16.35;;
32824;SDS011;51060;42.640;24.356;2022-10-16T15:01:00;19.88;;;16.83;;
32824;SDS011;51060;42.640;24.356;2022-10-16T15:03:25;28.00;;;25.17;;
32824;SDS011;51060;42.640;24.356;2022-10-16T15:05:51;21.73;;;19.58;;
32824;SDS011;51060;42.640;24.356;2022-10-16T15:08:16;21.42;;;19.40;;
32824;SDS011;51060;42.640;24.356;2022-10-16T15:10:43;12.25;;;9.48;;
32824;SDS011;51060;42.640;24.356;2022-10-16T15:13:12;12.43;;;9.32;;
32824;SDS011;51060;42.640;24.356;2022-10-16T15:15:42;54.70;;;36.60;;
32824;SDS011;51060;42.640;24.356;2022-10-16T15:18:09;82.65;;;53.67;;
32824;SDS011;51060;42.640;24.356;2022-10-16T15:20:36;212.85;;;122.22;;
32824;SDS011;51060;42.640;24.356;2022-10-16T15:23:03;166.63;;;94.50;;
32824;SDS011;51060;42.640;24.356;2022-10-16T15:25:46;78.18;;;42.75;;
32824;SDS011;51060;42.640;24.356;2022-10-16T15:28:16;61.30;;;33.50;;
32824;SDS011;51060;42.640;24.356;2022-10-16T15:30:42;34.00;;;19.95;;
32824;SDS011;51060;42.640;24.356;2022-10-16T15:33:14;15.77;;;9.35;;
32824;SDS011;51060;42.640;24.356;2022-10-16T15:35:45;8.80;;;6.45;;
32824;SDS011;51060;42.640;24.356;2022-10-16T15:38:13;6.65;;;4.80;;
32824;SDS011;51060;42.640;24.356;2022-10-16T15:40:40;11.13;;;6.40;;
32824;SDS011;51060;42.640;24.356;2022-10-16T15:43:06;13.93;;;12.50;;
32824;SDS011;51060;42.640;24.356;2022-10-16T15:45:32;11.82;;;9.05;;
32824;SDS011;51060;42.640;24.356;2022-10-16T15:47:58;8.47;;;6.10;;
32824;SDS011;51060;42.640;24.356;2022-10-16T15:50:23;10.50;;;7.13;;
32824;SDS011;51060;42.640;24.356;2022-10-16T15:52:49;8.27;;;5.65;;
32824;SDS011;51060;42.640;24.356;2022-10-16T15:55:15;9.65;;;6.60;;
32824;SDS011;51060;42.640;24.356;2022-10-16T15:57:42;22.20;;;16.83;;
32824;SDS011;51060;42.640;24.356;2022-10-16T16:00:09;14.47;;;8.07;;
32824;SDS011;51060;42.640;24.356;2022-10-16T16:02:40;8.82;;;6.22;;
32824;SDS011;51060;42.640;24.356;2022-10-16T16:05:09;19.25;;;14.20;;
32824;SDS011;51060;42.640;24.356;2022-10-16T16:07:36;21.57;;;16.93;;
32824;SDS011;51060;42.640;24.356;2022-10-16T16:10:02;24.67;;;19.07;;
32824;SDS011;51060;42.640;24.356;2022-10-16T16:12:29;22.60;;;16.43;;
32824;SDS011;51060;42.640;24.356;2022-10-16T16:14:55;13.10;;;10.00;;
32824;SDS011;51060;42.640;24.356;2022-10-16T16:17:20;16.47;;;12.27;;
32824;SDS011;51060;42.640;24.356;2022-10-16T16:19:46;13.30;;;10.20;;
32824;SDS011;51060;42.640;24.356;2022-10-16T16:22:12;10.33;;;7.40;;
32824;SDS011;51060;42.640;24.356;2022-10-16T16:24:38;8.27;;;6.73;;
32824;SDS011;51060;42.640;24.356;2022-10-16T16:27:03;12.43;;;9.07;;
32824;SDS011;51060;42.640;24.356;2022-10-16T16:29:29;12.70;;;11.00;;
32824;SDS011;51060;42.640;24.356;2022-10-16T16:31:54;8.50;;;6.10;;
32824;SDS011;51060;42.640;24.356;2022-10-16T16:34:25;22.87;;;17.87;;
32824;SDS011;51060;42.640;24.356;2022-10-16T16:36:52;13.57;;;11.07;;
32824;SDS011;51060;42.640;24.356;2022-10-16T16:39:18;14.37;;;11.50;;
32824;SDS011;51060;42.640;24.356;2022-10-16T16:41:44;21.43;;;16.83;;
32824;SDS011;51060;42.640;24.356;2022-10-16T16:44:13;27.77;;;19.23;;
32824;SDS011;51060;42.640;24.356;2022-10-16T16:46:39;18.97;;;14.50;;
32824;SDS011;51060;42.640;24.356;2022-10-16T16:49:05;11.97;;;8.10;;
32824;SDS011;51060;42.640;24.356;2022-10-16T16:51:31;32.27;;;22.90;;